sensor_id;sensor_type;location;lat;lon;timestamp;temperature;humidity
23839;DHT22;12100;44.384;20.272;2022-08-21T00:01:17;21.40;99.90
23839;DHT22;12100;44.384;20.272;2022-08-21T00:03:43;21.30;99.90
23839;DHT22;12100;44.384;20.272;2022-08-21T00:06:09;21.30;99.90
23839;DHT22;12100;44.384;20.272;2022-08-21T00:08:35;21.30;99.90
23839;DHT22;12100;44.384;20.272;2022-08-21T00:11:03;21.30;99.90
23839;DHT22;12100;44.384;20.272;2022-08-21T00:13:29;21.30;99.90
23839;DHT22;12100;44.384;20.272;2022-08-21T00:15:55;21.30;99.90
23839;DHT22;12100;44.384;20.272;2022-08-21T00:18:20;21.30;99.90
23839;DHT22;12100;44.384;20.272;2022-08-21T00:20:47;21.30;99.90
23839;DHT22;12100;44.384;20.272;2022-08-21T00:23:14;21.30;99.90
23839;DHT22;12100;44.384;20.272;2022-08-21T00:25:42;21.20;99.90
23839;DHT22;12100;44.384;20.272;2022-08-21T00:28:08;21.10;99.90
23839;DHT22;12100;44.384;20.272;2022-08-21T00:30:34;21.10;99.90
23839;DHT22;12100;44.384;20.272;2022-08-21T00:33:00;21.10;99.90
23839;DHT22;12100;44.384;20.272;2022-08-21T00:35:36;21.20;99.90
23839;DHT22;12100;44.384;20.272;2022-08-21T00:38:03;21.10;99.90
23839;DHT22;12100;44.384;20.272;2022-08-21T00:40:41;21.10;99.90
23839;DHT22;12100;44.384;20.272;2022-08-21T00:43:09;21.20;99.90
23839;DHT22;12100;44.384;20.272;2022-08-21T00:45:36;21.20;99.90
23839;DHT22;12100;44.384;20.272;2022-08-21T00:48:02;21.20;99.90
23839;DHT22;12100;44.384;20.272;2022-08-21T00:50:31;21.20;99.90
23839;DHT22;12100;44.384;20.272;2022-08-21T00:52:58;21.20;99.90
23839;DHT22;12100;44.384;20.272;2022-08-21T00:55:26;21.30;99.90
23839;DHT22;12100;44.384;20.272;2022-08-21T00:57:55;21.20;99.90
23839;DHT22;12100;44.384;20.272;2022-08-21T01:00:33;21.20;99.90
23839;DHT22;12100;44.384;20.272;2022-08-21T01:03:01;21.20;99.90
23839;DHT22;12100;44.384;20.272;2022-08-21T01:05:28;21.30;99.90
23839;DHT22;12100;44.384;20.272;2022-08-21T01:07:54;21.30;99.90
23839;DHT22;12100;44.384;20.272;2022-08-21T01:10:22;21.30;99.90
23839;DHT22;12100;44.384;20.272;2022-08-21T01:12:52;21.20;99.90
23839;DHT22;12100;44.384;20.272;2022-08-21T01:15:22;21.20;99.90
23839;DHT22;12100;44.384;20.272;2022-08-21T01:17:48;21.20;99.90
23839;DHT22;12100;44.384;20.272;2022-08-21T01:20:14;21.30;99.90
23839;DHT22;12100;44.384;20.272;2022-08-21T01:22:42;21.40;99.90
23839;DHT22;12100;44.384;20.272;2022-08-21T01:25:09;21.40;99.90
23839;DHT22;12100;44.384;20.272;2022-08-21T01:27:35;21.50;99.90
23839;DHT22;12100;44.384;20.272;2022-08-21T01:30:09;21.50;99.90
23839;DHT22;12100;44.384;20.272;2022-08-21T01:32:37;21.40;99.90
23839;DHT22;12100;44.384;20.272;2022-08-21T01:35:03;21.40;99.90
23839;DHT22;12100;44.384;20.272;2022-08-21T01:37:29;21.40;99.90
23839;DHT22;12100;44.384;20.272;2022-08-21T01:39:55;21.30;99.90
23839;DHT22;12100;44.384;20.272;2022-08-21T01:42:21;21.30;99.90
23839;DHT22;12100;44.384;20.272;2022-08-21T01:44:47;21.40;99.90
23839;DHT22;12100;44.384;20.272;2022-08-21T01:47:14;21.30;99.90
23839;DHT22;12100;44.384;20.272;2022-08-21T01:49:41;21.40;99.90
23839;DHT22;12100;44.384;20.272;2022-08-21T01:52:07;21.40;99.90
23839;DHT22;12100;44.384;20.272;2022-08-21T01:54:34;21.20;99.90
23839;DHT22;12100;44.384;20.272;2022-08-21T01:57:00;21.10;99.90
23839;DHT22;12100;44.384;20.272;2022-08-21T01:59:26;21.10;99.90
23839;DHT22;12100;44.384;20.272;2022-08-21T02:01:53;21.10;99.90
23839;DHT22;12100;44.384;20.272;2022-08-21T02:04:22;21.10;99.90
23839;DHT22;12100;44.384;20.272;2022-08-21T02:06:48;21.10;99.90
23839;DHT22;12100;44.384;20.272;2022-08-21T02:09:14;21.10;99.90
23839;DHT22;12100;44.384;20.272;2022-08-21T02:11:41;21.10;99.90
23839;DHT22;12100;44.384;20.272;2022-08-21T02:14:11;21.00;99.90
23839;DHT22;12100;44.384;20.272;2022-08-21T02:16:39;21.00;99.90
23839;DHT22;12100;44.384;20.272;2022-08-21T02:19:05;21.00;99.90
23839;DHT22;12100;44.384;20.272;2022-08-21T02:21:31;21.10;99.90
23839;DHT22;12100;44.384;20.272;2022-08-21T02:23:57;21.10;99.90
23839;DHT22;12100;44.384;20.272;2022-08-21T02:26:23;21.20;99.90
23839;DHT22;12100;44.384;20.272;2022-08-21T02:28:48;21.20;99.90
23839;DHT22;12100;44.384;20.272;2022-08-21T02:31:14;21.30;99.90
23839;DHT22;12100;44.384;20.272;2022-08-21T02:33:40;21.30;99.90
23839;DHT22;12100;44.384;20.272;2022-08-21T02:36:07;21.40;99.90
23839;DHT22;12100;44.384;20.272;2022-08-21T02:38:34;21.50;99.90
23839;DHT22;12100;44.384;20.272;2022-08-21T02:41:09;21.50;99.90
23839;DHT22;12100;44.384;20.272;2022-08-21T02:43:35;21.50;99.90
23839;DHT22;12100;44.384;20.272;2022-08-21T02:46:03;21.50;99.90
23839;DHT22;12100;44.384;20.272;2022-08-21T02:48:32;21.60;99.90
23839;DHT22;12100;44.384;20.272;2022-08-21T02:51:00;21.60;99.90
23839;DHT22;12100;44.384;20.272;2022-08-21T02:53:28;21.70;99.90
23839;DHT22;12100;44.384;20.272;2022-08-21T02:55:56;21.70;99.90
23839;DHT22;12100;44.384;20.272;2022-08-21T02:58:25;21.60;99.90
23839;DHT22;12100;44.384;20.272;2022-08-21T03:00:51;21.70;99.90
23839;DHT22;12100;44.384;20.272;2022-08-21T03:03:18;21.70;99.90
23839;DHT22;12100;44.384;20.272;2022-08-21T03:05:44;21.70;99.90
23839;DHT22;12100;44.384;20.272;2022-08-21T03:08:12;21.70;99.90
23839;DHT22;12100;44.384;20.272;2022-08-21T03:10:41;21.80;99.90
23839;DHT22;12100;44.384;20.272;2022-08-21T03:13:08;21.80;99.90
23839;DHT22;12100;44.384;20.272;2022-08-21T03:15:34;21.80;99.90
23839;DHT22;12100;44.384;20.272;2022-08-21T03:18:01;21.80;99.90
23839;DHT22;12100;44.384;20.272;2022-08-21T03:20:29;21.80;99.90
23839;DHT22;12100;44.384;20.272;2022-08-21T03:22:55;21.80;99.90
23839;DHT22;12100;44.384;20.272;2022-08-21T03:25:23;21.70;99.90
23839;DHT22;12100;44.384;20.272;2022-08-21T03:27:49;21.70;99.90
23839;DHT22;12100;44.384;20.272;2022-08-21T03:30:18;21.70;99.90
23839;DHT22;12100;44.384;20.272;2022-08-21T03:32:45;21.60;99.90
23839;DHT22;12100;44.384;20.272;2022-08-21T03:35:12;21.60;99.90
23839;DHT22;12100;44.384;20.272;2022-08-21T03:37:38;21.60;99.90
23839;DHT22;12100;44.384;20.272;2022-08-21T03:40:06;21.50;99.90
23839;DHT22;12100;44.384;20.272;2022-08-21T03:42:33;21.50;99.90
23839;DHT22;12100;44.384;20.272;2022-08-21T03:44:59;21.50;99.90
23839;DHT22;12100;44.384;20.272;2022-08-21T03:47:25;21.50;99.90
23839;DHT22;12100;44.384;20.272;2022-08-21T03:49:51;21.50;99.90
23839;DHT22;12100;44.384;20.272;2022-08-21T03:52:17;21.40;99.90
23839;DHT22;12100;44.384;20.272;2022-08-21T03:54:44;21.40;99.90
23839;DHT22;12100;44.384;20.272;2022-08-21T03:57:10;21.40;99.90
23839;DHT22;12100;44.384;20.272;2022-08-21T03:59:37;21.40;99.90
23839;DHT22;12100;44.384;20.272;2022-08-21T04:02:05;21.30;99.90
23839;DHT22;12100;44.384;20.272;2022-08-21T04:04:32;21.30;99.90
23839;DHT22;12100;44.384;20.272;2022-08-21T04:06:58;21.40;99.90
23839;DHT22;12100;44.384;20.272;2022-08-21T04:09:25;21.40;99.90
23839;DHT22;12100;44.384;20.272;2022-08-21T04:11:51;21.40;99.90
23839;DHT22;12100;44.384;20.272;2022-08-21T04:14:17;21.30;99.90
23839;DHT22;12100;44.384;20.272;2022-08-21T04:16:43;21.40;99.90
23839;DHT22;12100;44.384;20.272;2022-08-21T04:19:11;21.40;99.90
23839;DHT22;12100;44.384;20.272;2022-08-21T04:21:38;21.40;99.90
23839;DHT22;12100;44.384;20.272;2022-08-21T04:24:06;21.40;99.90
23839;DHT22;12100;44.384;20.272;2022-08-21T04:26:36;21.40;99.90
23839;DHT22;12100;44.384;20.272;2022-08-21T04:29:03;21.40;99.90
23839;DHT22;12100;44.384;20.272;2022-08-21T04:31:32;21.30;99.90
23839;DHT22;12100;44.384;20.272;2022-08-21T04:33:59;21.40;99.90
23839;DHT22;12100;44.384;20.272;2022-08-21T04:36:24;21.30;99.90
23839;DHT22;12100;44.384;20.272;2022-08-21T04:38:50;21.40;99.90
23839;DHT22;12100;44.384;20.272;2022-08-21T04:41:16;21.40;99.90
23839;DHT22;12100;44.384;20.272;2022-08-21T04:43:42;21.40;99.90
23839;DHT22;12100;44.384;20.272;2022-08-21T04:46:08;21.40;99.90
23839;DHT22;12100;44.384;20.272;2022-08-21T04:48:34;21.40;99.90
23839;DHT22;12100;44.384;20.272;2022-08-21T04:51:10;21.40;99.90
23839;DHT22;12100;44.384;20.272;2022-08-21T04:53:50;21.40;99.90
23839;DHT22;12100;44.384;20.272;2022-08-21T04:56:39;21.30;99.90
23839;DHT22;12100;44.384;20.272;2022-08-21T04:59:19;21.30;99.90
23839;DHT22;12100;44.384;20.272;2022-08-21T05:01:46;21.20;99.90
23839;DHT22;12100;44.384;20.272;2022-08-21T05:04:15;21.20;99.90
23839;DHT22;12100;44.384;20.272;2022-08-21T05:06:44;21.20;99.90
23839;DHT22;12100;44.384;20.272;2022-08-21T05:09:15;21.20;99.90
23839;DHT22;12100;44.384;20.272;2022-08-21T05:11:42;21.20;99.90
23839;DHT22;12100;44.384;20.272;2022-08-21T05:14:08;21.10;99.90
23839;DHT22;12100;44.384;20.272;2022-08-21T05:16:34;21.10;99.90
23839;DHT22;12100;44.384;20.272;2022-08-21T05:19:01;21.10;99.90
23839;DHT22;12100;44.384;20.272;2022-08-21T05:21:26;21.20;99.90
23839;DHT22;12100;44.384;20.272;2022-08-21T05:23:52;21.20;99.90
23839;DHT22;12100;44.384;20.272;2022-08-21T05:26:18;21.20;99.90
23839;DHT22;12100;44.384;20.272;2022-08-21T05:28:44;21.30;99.90
23839;DHT22;12100;44.384;20.272;2022-08-21T05:31:10;21.40;99.90
23839;DHT22;12100;44.384;20.272;2022-08-21T05:33:36;21.40;99.90
23839;DHT22;12100;44.384;20.272;2022-08-21T05:36:02;21.50;99.90
23839;DHT22;12100;44.384;20.272;2022-08-21T05:38:28;21.50;99.90
23839;DHT22;12100;44.384;20.272;2022-08-21T05:40:54;21.40;99.90
23839;DHT22;12100;44.384;20.272;2022-08-21T05:43:20;21.40;99.90
23839;DHT22;12100;44.384;20.272;2022-08-21T05:45:46;21.40;99.90
23839;DHT22;12100;44.384;20.272;2022-08-21T05:48:23;21.30;99.90
23839;DHT22;12100;44.384;20.272;2022-08-21T05:50:50;21.30;99.90
23839;DHT22;12100;44.384;20.272;2022-08-21T05:53:18;21.20;99.90
23839;DHT22;12100;44.384;20.272;2022-08-21T05:55:44;21.30;99.90
23839;DHT22;12100;44.384;20.272;2022-08-21T05:58:11;21.30;99.90
23839;DHT22;12100;44.384;20.272;2022-08-21T06:00:37;21.40;99.90
23839;DHT22;12100;44.384;20.272;2022-08-21T06:03:03;21.40;99.90
23839;DHT22;12100;44.384;20.272;2022-08-21T06:05:29;21.40;99.90
23839;DHT22;12100;44.384;20.272;2022-08-21T06:07:54;21.30;99.90
23839;DHT22;12100;44.384;20.272;2022-08-21T06:10:20;21.40;99.90
23839;DHT22;12100;44.384;20.272;2022-08-21T06:12:46;21.50;99.90
23839;DHT22;12100;44.384;20.272;2022-08-21T06:15:12;21.50;99.90
23839;DHT22;12100;44.384;20.272;2022-08-21T06:17:38;21.50;99.90
23839;DHT22;12100;44.384;20.272;2022-08-21T06:20:04;21.60;99.90
23839;DHT22;12100;44.384;20.272;2022-08-21T06:22:30;21.70;99.90
23839;DHT22;12100;44.384;20.272;2022-08-21T06:24:56;21.70;99.90
23839;DHT22;12100;44.384;20.272;2022-08-21T06:27:22;21.70;99.90
23839;DHT22;12100;44.384;20.272;2022-08-21T06:29:48;21.80;99.90
23839;DHT22;12100;44.384;20.272;2022-08-21T06:32:14;21.70;99.90
23839;DHT22;12100;44.384;20.272;2022-08-21T06:34:41;21.70;99.90
23839;DHT22;12100;44.384;20.272;2022-08-21T06:37:07;21.70;99.90
23839;DHT22;12100;44.384;20.272;2022-08-21T06:39:33;21.60;99.90
23839;DHT22;12100;44.384;20.272;2022-08-21T06:41:59;21.50;99.90
23839;DHT22;12100;44.384;20.272;2022-08-21T06:44:25;21.50;99.90
23839;DHT22;12100;44.384;20.272;2022-08-21T06:46:51;21.50;99.90
23839;DHT22;12100;44.384;20.272;2022-08-21T06:49:17;21.50;99.90
23839;DHT22;12100;44.384;20.272;2022-08-21T06:51:43;21.60;99.90
23839;DHT22;12100;44.384;20.272;2022-08-21T06:54:08;21.60;99.90
23839;DHT22;12100;44.384;20.272;2022-08-21T06:56:34;21.40;99.90
23839;DHT22;12100;44.384;20.272;2022-08-21T06:59:03;21.40;99.90
23839;DHT22;12100;44.384;20.272;2022-08-21T07:01:29;21.40;99.90
23839;DHT22;12100;44.384;20.272;2022-08-21T07:03:55;21.50;99.90
23839;DHT22;12100;44.384;20.272;2022-08-21T07:06:21;21.40;99.90
23839;DHT22;12100;44.384;20.272;2022-08-21T07:08:47;21.30;99.90
23839;DHT22;12100;44.384;20.272;2022-08-21T07:11:17;21.40;99.90
23839;DHT22;12100;44.384;20.272;2022-08-21T07:13:44;21.40;99.90
23839;DHT22;12100;44.384;20.272;2022-08-21T07:16:10;21.20;99.90
23839;DHT22;12100;44.384;20.272;2022-08-21T07:18:36;21.30;99.90
23839;DHT22;12100;44.384;20.272;2022-08-21T07:21:03;21.30;99.90
23839;DHT22;12100;44.384;20.272;2022-08-21T07:23:42;21.30;99.90
23839;DHT22;12100;44.384;20.272;2022-08-21T07:26:10;21.30;99.90
23839;DHT22;12100;44.384;20.272;2022-08-21T07:28:35;21.40;99.90
23839;DHT22;12100;44.384;20.272;2022-08-21T07:31:02;21.40;99.90
23839;DHT22;12100;44.384;20.272;2022-08-21T07:33:30;21.40;99.90
23839;DHT22;12100;44.384;20.272;2022-08-21T07:35:57;21.40;99.90
23839;DHT22;12100;44.384;20.272;2022-08-21T07:38:24;21.40;99.90
23839;DHT22;12100;44.384;20.272;2022-08-21T07:40:52;21.40;99.90
23839;DHT22;12100;44.384;20.272;2022-08-21T07:43:19;21.40;99.90
23839;DHT22;12100;44.384;20.272;2022-08-21T07:45:45;21.40;99.90
23839;DHT22;12100;44.384;20.272;2022-08-21T07:48:11;21.50;99.90
23839;DHT22;12100;44.384;20.272;2022-08-21T07:50:37;21.50;99.90
23839;DHT22;12100;44.384;20.272;2022-08-21T07:53:04;21.50;99.90
23839;DHT22;12100;44.384;20.272;2022-08-21T07:55:30;21.40;99.90
23839;DHT22;12100;44.384;20.272;2022-08-21T07:57:56;21.40;99.90
23839;DHT22;12100;44.384;20.272;2022-08-21T08:00:24;21.40;99.90
23839;DHT22;12100;44.384;20.272;2022-08-21T08:02:51;21.50;99.90
23839;DHT22;12100;44.384;20.272;2022-08-21T08:05:21;21.40;99.90
23839;DHT22;12100;44.384;20.272;2022-08-21T08:07:47;21.40;99.90
23839;DHT22;12100;44.384;20.272;2022-08-21T08:10:14;21.40;99.90
23839;DHT22;12100;44.384;20.272;2022-08-21T08:12:41;21.40;99.90
23839;DHT22;12100;44.384;20.272;2022-08-21T08:15:10;21.50;99.90
23839;DHT22;12100;44.384;20.272;2022-08-21T08:17:36;21.50;99.90
23839;DHT22;12100;44.384;20.272;2022-08-21T08:20:06;21.60;99.90
23839;DHT22;12100;44.384;20.272;2022-08-21T08:22:34;21.70;99.90
23839;DHT22;12100;44.384;20.272;2022-08-21T08:25:00;21.80;99.90
23839;DHT22;12100;44.384;20.272;2022-08-21T08:27:26;22.00;99.90
23839;DHT22;12100;44.384;20.272;2022-08-21T08:29:52;22.10;99.90
23839;DHT22;12100;44.384;20.272;2022-08-21T08:32:19;22.10;99.90
23839;DHT22;12100;44.384;20.272;2022-08-21T08:34:45;22.20;99.90
23839;DHT22;12100;44.384;20.272;2022-08-21T08:37:13;22.20;99.90
23839;DHT22;12100;44.384;20.272;2022-08-21T08:39:39;22.10;99.90
23839;DHT22;12100;44.384;20.272;2022-08-21T08:42:17;22.10;99.90
23839;DHT22;12100;44.384;20.272;2022-08-21T08:44:46;22.10;99.90
23839;DHT22;12100;44.384;20.272;2022-08-21T08:47:14;22.10;99.90
23839;DHT22;12100;44.384;20.272;2022-08-21T08:52:31;22.10;99.90
23839;DHT22;12100;44.384;20.272;2022-08-21T08:55:12;22.20;99.90
23839;DHT22;12100;44.384;20.272;2022-08-21T08:57:42;22.20;99.90
23839;DHT22;12100;44.384;20.272;2022-08-21T09:00:11;22.20;99.90
23839;DHT22;12100;44.384;20.272;2022-08-21T09:02:42;22.30;99.90
23839;DHT22;12100;44.384;20.272;2022-08-21T09:05:12;22.50;99.90
23839;DHT22;12100;44.384;20.272;2022-08-21T09:21:51;22.90;99.90
23839;DHT22;12100;44.384;20.272;2022-08-21T09:27:08;22.90;99.90
23839;DHT22;12100;44.384;20.272;2022-08-21T09:29:37;22.90;99.90
23839;DHT22;12100;44.384;20.272;2022-08-21T09:32:17;22.80;99.90
23839;DHT22;12100;44.384;20.272;2022-08-21T09:37:54;22.80;99.90
23839;DHT22;12100;44.384;20.272;2022-08-21T09:40:36;22.90;99.90
23839;DHT22;12100;44.384;20.272;2022-08-21T09:45:40;22.60;99.90
23839;DHT22;12100;44.384;20.272;2022-08-21T09:48:23;22.50;99.90
23839;DHT22;12100;44.384;20.272;2022-08-21T09:50:51;22.70;99.90
23839;DHT22;12100;44.384;20.272;2022-08-21T09:53:25;22.70;99.90
23839;DHT22;12100;44.384;20.272;2022-08-21T09:56:00;22.90;99.90
23839;DHT22;12100;44.384;20.272;2022-08-21T09:58:48;23.00;99.90
23839;DHT22;12100;44.384;20.272;2022-08-21T10:01:20;23.30;99.90
23839;DHT22;12100;44.384;20.272;2022-08-21T10:03:47;23.60;99.90
23839;DHT22;12100;44.384;20.272;2022-08-21T10:06:25;23.70;99.90
23839;DHT22;12100;44.384;20.272;2022-08-21T10:09:13;23.70;99.90
23839;DHT22;12100;44.384;20.272;2022-08-21T10:11:45;24.00;99.90
23839;DHT22;12100;44.384;20.272;2022-08-21T10:17:11;24.70;99.90
23839;DHT22;12100;44.384;20.272;2022-08-21T10:20:27;24.60;99.90
23839;DHT22;12100;44.384;20.272;2022-08-21T10:28:13;24.60;99.90
23839;DHT22;12100;44.384;20.272;2022-08-21T10:31:45;24.50;99.90
23839;DHT22;12100;44.384;20.272;2022-08-21T10:54:12;24.10;99.90
23839;DHT22;12100;44.384;20.272;2022-08-21T10:56:43;24.20;99.90
23839;DHT22;12100;44.384;20.272;2022-08-21T10:59:31;24.20;99.90
23839;DHT22;12100;44.384;20.272;2022-08-21T11:10:52;24.20;99.90
23839;DHT22;12100;44.384;20.272;2022-08-21T11:16:18;24.30;99.90
23839;DHT22;12100;44.384;20.272;2022-08-21T11:18:55;24.50;99.90
23839;DHT22;12100;44.384;20.272;2022-08-21T11:29:59;25.10;99.90
23839;DHT22;12100;44.384;20.272;2022-08-21T11:41:13;25.50;99.90
23839;DHT22;12100;44.384;20.272;2022-08-21T11:43:52;25.80;99.90
23839;DHT22;12100;44.384;20.272;2022-08-21T11:46:42;25.90;99.90
23839;DHT22;12100;44.384;20.272;2022-08-21T11:52:07;26.60;97.60
23839;DHT22;12100;44.384;20.272;2022-08-21T11:54:36;26.80;97.40
23839;DHT22;12100;44.384;20.272;2022-08-21T12:00:16;26.40;93.20
23839;DHT22;12100;44.384;20.272;2022-08-21T12:02:52;26.80;94.30
23839;DHT22;12100;44.384;20.272;2022-08-21T12:05:32;26.70;91.90
23839;DHT22;12100;44.384;20.272;2022-08-21T12:08:11;26.60;93.20
23839;DHT22;12100;44.384;20.272;2022-08-21T12:10:46;27.20;93.00
23839;DHT22;12100;44.384;20.272;2022-08-21T12:13:28;27.70;91.20
23839;DHT22;12100;44.384;20.272;2022-08-21T12:16:09;27.60;88.20
23839;DHT22;12100;44.384;20.272;2022-08-21T12:21:25;27.70;86.50
23839;DHT22;12100;44.384;20.272;2022-08-21T12:29:21;27.10;87.50
23839;DHT22;12100;44.384;20.272;2022-08-21T12:31:54;26.90;89.50
23839;DHT22;12100;44.384;20.272;2022-08-21T12:34:25;26.90;90.50
23839;DHT22;12100;44.384;20.272;2022-08-21T12:37:03;27.20;91.10
23839;DHT22;12100;44.384;20.272;2022-08-21T12:39:32;27.20;91.90
23839;DHT22;12100;44.384;20.272;2022-08-21T12:42:37;27.20;91.00
23839;DHT22;12100;44.384;20.272;2022-08-21T12:45:22;26.70;91.20
23839;DHT22;12100;44.384;20.272;2022-08-21T12:48:10;26.00;92.30
23839;DHT22;12100;44.384;20.272;2022-08-21T12:56:09;24.70;98.60
23839;DHT22;12100;44.384;20.272;2022-08-21T12:58:35;24.90;98.60
23839;DHT22;12100;44.384;20.272;2022-08-21T13:01:05;24.90;98.90
23839;DHT22;12100;44.384;20.272;2022-08-21T13:03:35;24.90;99.50
23839;DHT22;12100;44.384;20.272;2022-08-21T13:06:04;24.90;99.90
23839;DHT22;12100;44.384;20.272;2022-08-21T13:08:30;24.80;99.90
23839;DHT22;12100;44.384;20.272;2022-08-21T13:11:05;24.90;99.90
23839;DHT22;12100;44.384;20.272;2022-08-21T13:13:33;24.80;99.90
23839;DHT22;12100;44.384;20.272;2022-08-21T13:16:04;24.50;99.90
23839;DHT22;12100;44.384;20.272;2022-08-21T13:18:32;24.30;99.90
23839;DHT22;12100;44.384;20.272;2022-08-21T13:21:13;24.40;99.90
23839;DHT22;12100;44.384;20.272;2022-08-21T13:23:40;24.40;99.90
23839;DHT22;12100;44.384;20.272;2022-08-21T13:26:14;24.40;99.90
23839;DHT22;12100;44.384;20.272;2022-08-21T13:28:40;24.40;99.90
23839;DHT22;12100;44.384;20.272;2022-08-21T13:31:09;24.50;99.90
23839;DHT22;12100;44.384;20.272;2022-08-21T13:33:37;24.50;99.90
23839;DHT22;12100;44.384;20.272;2022-08-21T13:36:05;24.70;99.90
23839;DHT22;12100;44.384;20.272;2022-08-21T13:38:35;24.90;99.90
23839;DHT22;12100;44.384;20.272;2022-08-21T13:43:45;25.00;99.90
23839;DHT22;12100;44.384;20.272;2022-08-21T13:46:13;24.80;99.90
23839;DHT22;12100;44.384;20.272;2022-08-21T13:48:41;24.80;99.90
23839;DHT22;12100;44.384;20.272;2022-08-21T13:51:07;24.80;99.90
23839;DHT22;12100;44.384;20.272;2022-08-21T13:53:47;24.60;99.90
23839;DHT22;12100;44.384;20.272;2022-08-21T13:56:26;24.70;99.90
23839;DHT22;12100;44.384;20.272;2022-08-21T13:58:54;24.70;99.90
23839;DHT22;12100;44.384;20.272;2022-08-21T14:01:26;24.90;99.90
23839;DHT22;12100;44.384;20.272;2022-08-21T14:03:57;25.20;98.90
23839;DHT22;12100;44.384;20.272;2022-08-21T14:06:26;25.40;97.40
23839;DHT22;12100;44.384;20.272;2022-08-21T14:09:29;25.50;95.90
23839;DHT22;12100;44.384;20.272;2022-08-21T14:11:56;25.70;95.30
23839;DHT22;12100;44.384;20.272;2022-08-21T14:14:26;26.00;94.80
23839;DHT22;12100;44.384;20.272;2022-08-21T14:16:57;26.10;94.00
23839;DHT22;12100;44.384;20.272;2022-08-21T14:19:35;26.30;93.20
23839;DHT22;12100;44.384;20.272;2022-08-21T14:24:49;26.00;91.60
23839;DHT22;12100;44.384;20.272;2022-08-21T14:27:17;25.90;91.40
23839;DHT22;12100;44.384;20.272;2022-08-21T14:29:44;25.70;92.10
23839;DHT22;12100;44.384;20.272;2022-08-21T14:32:15;25.80;92.20
23839;DHT22;12100;44.384;20.272;2022-08-21T14:34:41;25.60;93.00
23839;DHT22;12100;44.384;20.272;2022-08-21T14:37:07;25.50;92.70
23839;DHT22;12100;44.384;20.272;2022-08-21T14:39:33;25.30;93.90
23839;DHT22;12100;44.384;20.272;2022-08-21T14:41:59;25.10;94.40
23839;DHT22;12100;44.384;20.272;2022-08-21T14:44:26;24.70;95.80
23839;DHT22;12100;44.384;20.272;2022-08-21T14:46:52;24.70;96.70
23839;DHT22;12100;44.384;20.272;2022-08-21T14:49:19;24.50;97.40
23839;DHT22;12100;44.384;20.272;2022-08-21T14:51:44;24.30;99.30
23839;DHT22;12100;44.384;20.272;2022-08-21T14:54:10;24.10;99.90
23839;DHT22;12100;44.384;20.272;2022-08-21T14:56:36;23.80;99.90
23839;DHT22;12100;44.384;20.272;2022-08-21T14:59:05;23.70;99.90
23839;DHT22;12100;44.384;20.272;2022-08-21T15:01:36;23.60;99.90
23839;DHT22;12100;44.384;20.272;2022-08-21T15:04:02;23.50;99.90
23839;DHT22;12100;44.384;20.272;2022-08-21T15:06:28;23.30;99.90
23839;DHT22;12100;44.384;20.272;2022-08-21T15:08:54;23.20;99.90
23839;DHT22;12100;44.384;20.272;2022-08-21T15:11:21;23.10;99.90
23839;DHT22;12100;44.384;20.272;2022-08-21T15:13:53;23.00;99.90
23839;DHT22;12100;44.384;20.272;2022-08-21T15:16:21;22.90;99.90
23839;DHT22;12100;44.384;20.272;2022-08-21T15:18:47;22.80;99.90
23839;DHT22;12100;44.384;20.272;2022-08-21T15:21:14;22.70;99.90
23839;DHT22;12100;44.384;20.272;2022-08-21T15:23:40;22.70;99.90
23839;DHT22;12100;44.384;20.272;2022-08-21T15:26:06;22.70;99.90
23839;DHT22;12100;44.384;20.272;2022-08-21T15:28:33;22.70;99.90
23839;DHT22;12100;44.384;20.272;2022-08-21T15:31:00;22.70;99.90
23839;DHT22;12100;44.384;20.272;2022-08-21T15:33:26;22.50;99.90
23839;DHT22;12100;44.384;20.272;2022-08-21T15:35:52;22.50;99.90
23839;DHT22;12100;44.384;20.272;2022-08-21T15:38:17;22.50;99.90
23839;DHT22;12100;44.384;20.272;2022-08-21T15:40:44;22.30;99.90
23839;DHT22;12100;44.384;20.272;2022-08-21T15:43:24;22.30;99.90
23839;DHT22;12100;44.384;20.272;2022-08-21T15:45:51;22.30;99.90
23839;DHT22;12100;44.384;20.272;2022-08-21T15:48:17;22.20;99.90
23839;DHT22;12100;44.384;20.272;2022-08-21T15:50:43;22.20;99.90
23839;DHT22;12100;44.384;20.272;2022-08-21T15:53:09;22.20;99.90
23839;DHT22;12100;44.384;20.272;2022-08-21T15:55:35;22.20;99.90
23839;DHT22;12100;44.384;20.272;2022-08-21T15:58:00;22.10;99.90
23839;DHT22;12100;44.384;20.272;2022-08-21T16:00:31;22.10;99.90
23839;DHT22;12100;44.384;20.272;2022-08-21T16:02:58;22.10;99.90
23839;DHT22;12100;44.384;20.272;2022-08-21T16:05:25;22.10;99.90
23839;DHT22;12100;44.384;20.272;2022-08-21T16:07:52;22.10;99.90
23839;DHT22;12100;44.384;20.272;2022-08-21T16:10:20;22.10;99.90
23839;DHT22;12100;44.384;20.272;2022-08-21T16:12:57;22.00;99.90
23839;DHT22;12100;44.384;20.272;2022-08-21T16:15:24;22.00;99.90
23839;DHT22;12100;44.384;20.272;2022-08-21T16:17:51;22.00;99.90
23839;DHT22;12100;44.384;20.272;2022-08-21T16:20:21;21.90;99.90
23839;DHT22;12100;44.384;20.272;2022-08-21T16:22:49;21.80;99.90
23839;DHT22;12100;44.384;20.272;2022-08-21T16:25:15;21.80;99.90
23839;DHT22;12100;44.384;20.272;2022-08-21T16:27:44;21.60;99.90
23839;DHT22;12100;44.384;20.272;2022-08-21T16:30:11;21.60;99.90
23839;DHT22;12100;44.384;20.272;2022-08-21T16:32:37;21.60;99.90
23839;DHT22;12100;44.384;20.272;2022-08-21T16:35:03;21.60;99.90
23839;DHT22;12100;44.384;20.272;2022-08-21T16:37:29;21.70;99.90
23839;DHT22;12100;44.384;20.272;2022-08-21T16:39:57;21.60;99.90
23839;DHT22;12100;44.384;20.272;2022-08-21T16:42:25;21.60;99.90
23839;DHT22;12100;44.384;20.272;2022-08-21T16:44:53;21.60;99.90
23839;DHT22;12100;44.384;20.272;2022-08-21T16:47:18;21.50;99.90
23839;DHT22;12100;44.384;20.272;2022-08-21T16:49:44;21.60;99.90
23839;DHT22;12100;44.384;20.272;2022-08-21T16:52:11;21.60;99.90
23839;DHT22;12100;44.384;20.272;2022-08-21T16:54:37;21.60;99.90
23839;DHT22;12100;44.384;20.272;2022-08-21T16:57:03;21.40;99.90
23839;DHT22;12100;44.384;20.272;2022-08-21T16:59:30;21.50;99.90
23839;DHT22;12100;44.384;20.272;2022-08-21T17:01:56;21.60;99.90
23839;DHT22;12100;44.384;20.272;2022-08-21T17:04:22;21.60;99.90
23839;DHT22;12100;44.384;20.272;2022-08-21T17:06:50;21.50;99.90
23839;DHT22;12100;44.384;20.272;2022-08-21T17:09:16;21.60;99.90
23839;DHT22;12100;44.384;20.272;2022-08-21T17:11:45;21.50;99.90
23839;DHT22;12100;44.384;20.272;2022-08-21T17:14:20;21.60;99.90